createdAt,value
2019-04-25T00:02:39.149Z,91.08
2019-04-25T00:05:11.389Z,90.83
2019-04-25T00:07:42.477Z,89.95
2019-04-25T00:10:11.722Z,90.01
2019-04-25T00:12:43.209Z,90.29
2019-04-25T00:15:13.192Z,89.96
2019-04-25T00:17:44.436Z,90.06
2019-04-25T00:20:14.746Z,89.97
2019-04-25T00:22:53.402Z,89.98
2019-04-25T00:25:44.384Z,90.44
2019-04-25T00:28:12.520Z,90.62
2019-04-25T00:30:43.445Z,90.50
2019-04-25T00:33:12.387Z,90.18
2019-04-25T00:35:43.555Z,89.82
2019-04-25T00:38:12.252Z,90.05
2019-04-25T00:40:42.757Z,90.36
2019-04-25T00:43:12.065Z,90.17
2019-04-25T00:45:42.430Z,90.23
2019-04-25T00:48:12.219Z,90.18
2019-04-25T00:50:42.648Z,91.18
2019-04-25T00:53:11.896Z,91.56
2019-04-25T00:55:43.081Z,91.87
2019-04-25T00:58:18.689Z,91.92
2019-04-25T01:01:06.698Z,91.81
2019-04-25T01:03:36.236Z,91.95
2019-04-25T01:06:05.432Z,91.72
2019-04-25T01:08:34.392Z,91.38
2019-04-25T01:11:03.314Z,91.23
2019-04-25T01:13:32.314Z,91.27
2019-04-25T01:16:03.693Z,91.41
2019-04-25T01:18:33.603Z,91.36
2019-04-25T01:21:04.424Z,91.18
2019-04-25T01:23:33.691Z,91.51
2019-04-25T01:26:03.322Z,91.93
2019-04-25T01:28:33.851Z,91.97
2019-04-25T01:31:04.442Z,90.93
2019-04-25T01:33:33.523Z,90.54
2019-04-25T01:36:16.944Z,90.31
2019-04-25T01:38:53.385Z,89.24
2019-04-25T01:41:44.851Z,87.69
2019-04-25T01:44:19.746Z,86.98
2019-04-25T01:46:49.656Z,87.51
2019-04-25T01:49:18.854Z,87.99
2019-04-25T01:51:48.852Z,88.56
2019-04-25T01:54:18.053Z,89.23
2019-04-25T01:56:47.229Z,89.42
2019-04-25T01:59:16.144Z,89.78
2019-04-25T02:01:45.074Z,89.94
2019-04-25T02:04:14.135Z,90.24
2019-04-25T02:06:43.460Z,90.54
2019-04-25T02:09:13.946Z,90.49
2019-04-25T02:12:11.064Z,90.33
2019-04-25T02:14:40.108Z,89.87
2019-04-25T02:17:09.008Z,88.68
2019-04-25T02:19:37.879Z,88.50
2019-04-25T02:22:07.585Z,88.88
2019-04-25T02:24:36.642Z,89.07
2019-04-25T02:27:05.670Z,89.65
2019-04-25T02:29:34.752Z,89.77
2019-04-25T02:32:08.849Z,90.51
2019-04-25T02:34:35.140Z,90.74
2019-04-25T02:37:08.860Z,90.97
2019-04-25T02:39:37.361Z,91.00
2019-04-25T02:42:08.292Z,90.97
2019-04-25T02:44:39.885Z,91.27
2019-04-25T02:47:28.148Z,91.25
2019-04-25T02:50:25.321Z,90.90
2019-04-25T02:53:06.145Z,90.12
2019-04-25T02:55:47.022Z,90.09
2019-04-25T02:58:15.907Z,90.24
2019-04-25T03:00:55.115Z,90.28
2019-04-25T03:03:15.610Z,90.06
2019-04-25T03:05:47.194Z,90.07
2019-04-25T03:08:15.370Z,89.92
2019-04-25T03:10:44.517Z,89.63
2019-04-25T03:13:14.939Z,89.94
2019-04-25T03:15:44.341Z,90.86
2019-04-25T03:18:15.611Z,91.52
2019-04-25T03:20:50.813Z,91.77
2019-04-25T03:23:42.152Z,91.24
2019-04-25T03:26:09.448Z,90.99
2019-04-25T03:28:38.450Z,90.99
2019-04-25T03:31:14.070Z,91.22
2019-04-25T03:33:38.688Z,91.15
2019-04-25T03:36:36.109Z,90.69
2019-04-25T03:39:07.069Z,90.51
2019-04-25T03:41:36.133Z,90.39
2019-04-25T03:44:06.312Z,90.53
2019-04-25T03:46:35.333Z,90.66
2019-04-25T03:49:05.314Z,91.08
2019-04-25T03:51:34.892Z,91.04
2019-04-25T03:54:04.894Z,90.58
2019-04-25T03:56:34.571Z,89.32
2019-04-25T03:59:05.836Z,89.29
2019-04-25T04:01:34.322Z,89.71
2019-04-25T04:04:05.732Z,89.93
2019-04-25T04:06:34.406Z,89.94
2019-04-25T04:09:05.887Z,89.93
2019-04-25T04:11:35.646Z,89.86
2019-04-25T04:14:05.775Z,89.96
2019-04-25T04:17:01.833Z,90.28
2019-04-25T04:19:34.762Z,90.51
2019-04-25T04:22:13.687Z,90.68
2019-04-25T04:24:47.446Z,90.60
2019-04-25T04:27:18.059Z,90.76
2019-04-25T04:29:47.031Z,91.15
2019-04-25T04:32:16.328Z,90.91
2019-04-25T04:34:46.042Z,90.96
2019-04-25T04:37:16.186Z,90.70
2019-04-25T04:39:45.286Z,90.42
2019-04-25T04:42:14.937Z,90.10
2019-04-25T04:44:44.748Z,89.50
2019-04-25T04:47:15.050Z,88.89
2019-04-25T04:49:44.243Z,88.51
2019-04-25T04:52:14.720Z,87.45
2019-04-25T04:54:44.043Z,86.41
2019-04-25T04:57:23.209Z,86.02
2019-04-25T04:59:43.924Z,85.02
2019-04-25T05:02:31.214Z,83.70
2019-04-25T05:05:10.614Z,83.36
2019-04-25T05:07:43.966Z,81.96
2019-04-25T05:10:14.324Z,81.57
2019-04-25T05:12:43.847Z,82.03
2019-04-25T05:15:16.240Z,82.05
2019-04-25T05:17:44.136Z,81.78
2019-04-25T05:20:15.118Z,81.25
2019-04-25T05:22:44.550Z,81.14
2019-04-25T05:25:16.228Z,81.28
2019-04-25T05:27:57.813Z,81.04
2019-04-25T05:30:19.772Z,80.72
2019-04-25T05:32:48.730Z,79.92
2019-04-25T05:35:17.841Z,78.95
2019-04-25T05:37:46.764Z,78.40
2019-04-25T05:40:17.062Z,78.09
2019-04-25T05:42:51.008Z,78.05
2019-04-25T05:45:21.447Z,77.44
2019-04-25T05:47:50.420Z,76.92
2019-04-25T05:50:19.908Z,77.21
2019-04-25T05:52:48.734Z,77.26
2019-04-25T05:55:19.895Z,76.73
2019-04-25T05:57:50.277Z,77.61
2019-04-25T06:00:20.701Z,77.50
2019-04-25T06:02:53.286Z,77.57
2019-04-25T06:05:23.386Z,77.81
2019-04-25T06:07:54.324Z,77.66
2019-04-25T06:10:35.583Z,77.15
2019-04-25T06:13:29.733Z,77.21
2019-04-25T06:16:09.152Z,75.13
2019-04-25T06:18:49.869Z,74.41
2019-04-25T06:21:19.162Z,73.75
2019-04-25T06:24:11.072Z,73.95
2019-04-25T06:26:50.815Z,73.26
2019-04-25T06:29:20.483Z,71.79
2019-04-25T06:31:49.561Z,70.21
2019-04-25T06:34:19.869Z,67.12
2019-04-25T06:36:48.961Z,66.35
2019-04-25T06:39:17.908Z,65.94
2019-04-25T06:41:46.920Z,66.62
2019-04-25T06:44:32.970Z,66.85
2019-04-25T06:47:15.121Z,67.34
2019-04-25T06:49:44.054Z,67.19
2019-04-25T06:52:13.904Z,67.21
2019-04-25T06:54:43.689Z,66.36
2019-04-25T06:57:14.038Z,65.09
2019-04-25T06:59:43.740Z,63.69
2019-04-25T07:02:13.982Z,63.38
2019-04-25T07:04:43.533Z,63.61
2019-04-25T07:07:14.977Z,63.58
2019-04-25T07:09:44.172Z,63.13
2019-04-25T07:12:13.530Z,61.99
2019-04-25T07:14:44.004Z,59.22
2019-04-25T07:17:14.311Z,53.51
2019-04-25T07:19:44.104Z,50.02
2019-04-25T07:22:15.198Z,46.45
2019-04-25T07:24:44.190Z,46.18
2019-04-25T07:27:44.764Z,44.03
2019-04-25T07:30:51.479Z,44.81
2019-04-25T07:33:17.903Z,44.81
2019-04-25T07:35:46.940Z,45.98
2019-04-25T07:38:15.979Z,46.15
2019-04-25T07:40:44.939Z,48.27
2019-04-25T07:43:14.055Z,50.17
2019-04-25T07:45:43.496Z,49.75
2019-04-25T07:48:13.985Z,49.71
2019-04-25T07:50:43.810Z,47.81
2019-04-25T07:53:14.258Z,45.25
2019-04-25T07:55:43.445Z,43.00
2019-04-25T07:58:14.261Z,41.00
2019-04-25T08:00:43.927Z,41.51
2019-04-25T08:03:13.797Z,41.18
2019-04-25T08:05:44.029Z,42.78
2019-04-25T08:08:13.616Z,42.45
2019-04-25T08:11:03.997Z,44.19
2019-04-25T08:13:42.254Z,44.73
2019-04-25T08:16:14.635Z,46.55
2019-04-25T08:18:44.520Z,47.38
2019-04-25T08:21:15.259Z,48.14
2019-04-25T08:23:44.383Z,48.69
2019-04-25T08:26:14.302Z,48.55
2019-04-25T08:28:51.932Z,48.50
2019-04-25T08:31:14.045Z,46.83
2019-04-25T08:33:46.339Z,46.63
2019-04-25T08:36:14.255Z,46.63
2019-04-25T08:38:44.707Z,46.51
2019-04-25T08:41:14.133Z,46.76
2019-04-25T08:43:45.360Z,44.72
2019-04-25T08:46:14.270Z,45.12
2019-04-25T08:49:02.393Z,43.64
2019-04-25T08:51:34.921Z,45.54
2019-04-25T08:54:13.554Z,43.93
2019-04-25T08:56:43.961Z,42.72
2019-04-25T08:59:43.321Z,43.56
2019-04-25T09:02:26.362Z,43.71
2019-04-25T09:05:14.472Z,42.87
2019-04-25T09:07:45.339Z,41.37
2019-04-25T09:10:15.826Z,41.37
2019-04-25T09:12:45.426Z,42.74
2019-04-25T09:15:14.953Z,42.62
2019-04-25T09:17:46.983Z,41.75
2019-04-25T09:20:15.192Z,41.04
2019-04-25T09:22:44.618Z,40.98
2019-04-25T09:25:15.984Z,40.62
2019-04-25T09:27:45.807Z,40.86
2019-04-25T09:30:15.790Z,40.86
2019-04-25T09:32:45.733Z,39.78
2019-04-25T09:35:15.338Z,39.78
2019-04-25T09:37:45.964Z,41.04
2019-04-25T09:40:16.603Z,40.82
2019-04-25T09:42:47.698Z,40.60
2019-04-25T09:45:46.318Z,40.36
2019-04-25T09:48:26.678Z,40.74
2019-04-25T09:51:03.499Z,42.26
2019-04-25T09:53:38.827Z,42.18
2019-04-25T09:56:30.387Z,41.30
2019-04-25T09:59:10.954Z,41.01
2019-04-25T10:01:41.392Z,40.86
2019-04-25T10:04:10.396Z,40.89
2019-04-25T10:06:39.475Z,42.16
2019-04-25T10:09:10.165Z,42.05
2019-04-25T10:11:39.979Z,40.97
2019-04-25T10:14:38.938Z,41.19
2019-04-25T10:17:08.099Z,40.42
2019-04-25T10:19:37.736Z,40.52
2019-04-25T10:22:07.050Z,38.90
2019-04-25T10:24:37.386Z,39.75
2019-04-25T10:27:07.443Z,38.71
2019-04-25T10:29:44.930Z,38.72
2019-04-25T10:32:07.284Z,38.57
2019-04-25T10:34:36.229Z,39.13
2019-04-25T10:37:05.233Z,39.71
2019-04-25T10:39:34.454Z,39.70
2019-04-25T10:42:03.659Z,39.65
2019-04-25T10:44:33.848Z,39.84
2019-04-25T10:47:03.070Z,39.65
2019-04-25T10:49:32.031Z,39.37
2019-04-25T10:52:01.013Z,39.44
2019-04-25T10:54:29.969Z,39.53
2019-04-25T10:56:58.834Z,40.38
2019-04-25T10:59:27.796Z,40.76
2019-04-25T11:01:56.669Z,39.79
2019-04-25T11:04:34.325Z,39.07
2019-04-25T11:07:03.769Z,38.51
2019-04-25T11:09:34.248Z,38.41
2019-04-25T11:12:03.854Z,37.71
2019-04-25T11:14:34.239Z,35.92
2019-04-25T11:17:03.297Z,35.84
2019-04-25T11:19:33.870Z,35.93
2019-04-25T11:22:03.990Z,35.76
2019-04-25T11:24:34.282Z,36.66
2019-04-25T11:27:04.315Z,35.30
2019-04-25T11:29:34.179Z,35.27
2019-04-25T11:32:03.473Z,33.59
2019-04-25T11:34:32.469Z,33.38
2019-04-25T11:37:01.436Z,34.61
2019-04-25T11:39:53.149Z,35.08
2019-04-25T11:42:23.561Z,33.20
2019-04-25T11:44:54.132Z,33.59
2019-04-25T11:47:24.291Z,32.14
2019-04-25T11:49:54.625Z,32.12
2019-04-25T11:52:28.187Z,32.16
2019-04-25T11:54:55.777Z,32.80
2019-04-25T11:57:24.754Z,32.52
2019-04-25T11:59:54.587Z,32.36
2019-04-25T12:02:25.538Z,31.67
2019-04-25T12:04:55.275Z,31.93
2019-04-25T12:07:24.401Z,32.27
2019-04-25T12:09:54.521Z,32.34
2019-04-25T12:12:23.918Z,32.01
2019-04-25T12:14:54.369Z,31.79
2019-04-25T12:17:23.580Z,31.75
2019-04-25T12:19:53.945Z,31.90
2019-04-25T12:22:23.817Z,32.00
2019-04-25T12:24:54.689Z,31.14
2019-04-25T12:27:24.268Z,31.73
2019-04-25T12:29:53.305Z,30.53
2019-04-25T12:32:22.300Z,30.94
2019-04-25T12:34:51.676Z,30.42
2019-04-25T12:37:20.567Z,30.22
2019-04-25T12:39:49.561Z,29.58
2019-04-25T12:42:18.540Z,28.83
2019-04-25T12:45:06.326Z,27.42
2019-04-25T12:47:38.182Z,25.63
2019-04-25T12:50:07.524Z,25.72
2019-04-25T12:52:36.459Z,26.05
2019-04-25T12:55:06.402Z,26.59
2019-04-25T12:57:35.325Z,26.32
2019-04-25T13:00:05.881Z,25.47
2019-04-25T13:02:36.501Z,25.43
2019-04-25T13:05:06.994Z,25.08
2019-04-25T13:07:36.032Z,24.91
2019-04-25T13:10:05.878Z,24.86
2019-04-25T13:12:34.814Z,24.85
2019-04-25T13:15:04.243Z,24.51
2019-04-25T13:17:33.758Z,23.86
2019-04-25T13:20:04.050Z,23.43
2019-04-25T13:22:34.797Z,23.72
2019-04-25T13:25:05.622Z,23.93
2019-04-25T13:28:08.930Z,23.16
2019-04-25T13:31:12.405Z,23.53
2019-04-25T13:33:57.214Z,24.12
2019-04-25T13:36:26.271Z,24.61
2019-04-25T13:38:55.238Z,25.14
2019-04-25T13:41:24.254Z,25.06
2019-04-25T13:43:54.653Z,25.69
2019-04-25T13:46:26.101Z,25.91
2019-04-25T13:48:54.630Z,25.83
2019-04-25T13:51:24.619Z,25.47
2019-04-25T13:53:54.590Z,25.38
2019-04-25T13:56:25.924Z,26.71
2019-04-25T13:58:55.890Z,26.00
2019-04-25T14:01:25.855Z,25.56
2019-04-25T14:03:54.859Z,25.63
2019-04-25T14:06:23.997Z,26.35
2019-04-25T14:08:53.424Z,26.46
2019-04-25T14:11:24.400Z,25.75
2019-04-25T14:13:53.421Z,25.93
2019-04-25T14:16:41.412Z,25.92
2019-04-25T14:19:33.575Z,25.91
2019-04-25T14:22:04.647Z,25.93
2019-04-25T14:24:35.689Z,25.91
2019-04-25T14:27:04.542Z,25.80
2019-04-25T14:29:33.439Z,26.25
2019-04-25T14:32:03.318Z,25.74
2019-04-25T14:34:33.721Z,25.69
2019-04-25T14:37:02.584Z,25.15
2019-04-25T14:39:31.522Z,25.29
2019-04-25T14:42:00.346Z,23.75
2019-04-25T14:44:29.311Z,23.00
2019-04-25T14:46:58.229Z,22.49
2019-04-25T14:49:27.054Z,22.23
2019-04-25T14:51:56.067Z,22.04
2019-04-25T14:54:30.838Z,22.56
2019-04-25T14:57:24.303Z,23.11
2019-04-25T14:59:53.474Z,22.82
2019-04-25T15:02:23.924Z,23.20
2019-04-25T15:04:52.883Z,23.36
2019-04-25T15:07:23.301Z,24.16
2019-04-25T15:09:52.809Z,23.81
2019-04-25T15:12:22.477Z,23.66
2019-04-25T15:14:52.766Z,24.09
2019-04-25T15:17:23.569Z,24.58
2019-04-25T15:19:52.655Z,24.30
2019-04-25T15:22:22.116Z,23.91
2019-04-25T15:24:50.943Z,23.85
2019-04-25T15:27:20.117Z,23.61
2019-04-25T15:29:49.320Z,23.24
2019-04-25T15:32:21.569Z,23.72
2019-04-25T15:34:55.016Z,23.97
2019-04-25T15:37:48.072Z,23.68
2019-04-25T15:40:41.131Z,24.18
2019-04-25T15:43:26.334Z,23.97
2019-04-25T15:46:10.598Z,24.25
2019-04-25T15:48:39.921Z,23.95
2019-04-25T15:51:08.864Z,23.87
2019-04-25T15:53:38.121Z,23.24
2019-04-25T15:56:07.161Z,23.27
2019-04-25T15:58:37.336Z,22.62
2019-04-25T16:01:07.068Z,21.60
2019-04-25T16:03:36.090Z,21.68
2019-04-25T16:06:05.337Z,20.98
2019-04-25T16:08:35.127Z,20.18
2019-04-25T16:11:04.324Z,18.83
2019-04-25T16:13:34.345Z,18.33
2019-04-25T16:16:04.157Z,17.82
2019-04-25T16:18:33.223Z,17.53
2019-04-25T16:21:02.222Z,17.18
2019-04-25T16:23:32.136Z,16.70
2019-04-25T16:26:01.209Z,16.91
2019-04-25T16:28:30.191Z,16.40
2019-04-25T16:30:59.001Z,17.23
2019-04-25T16:33:29.013Z,17.66
2019-04-25T16:35:58.075Z,18.92
2019-04-25T16:38:27.169Z,19.28
2019-04-25T16:40:57.952Z,19.95
2019-04-25T16:43:29.632Z,21.30
2019-04-25T16:45:58.763Z,25.36
2019-04-25T16:48:27.811Z,27.99
2019-04-25T16:50:56.836Z,30.09
2019-04-25T16:53:25.845Z,32.91
2019-04-25T16:55:54.839Z,34.01
2019-04-25T16:58:23.745Z,35.16
2019-04-25T17:01:05.073Z,35.68
2019-04-25T17:03:35.296Z,35.70
2019-04-25T17:06:05.249Z,36.32
2019-04-25T17:08:35.388Z,36.75
2019-04-25T17:11:04.778Z,36.73
2019-04-25T17:13:35.906Z,36.63
2019-04-25T17:16:22.648Z,37.01
2019-04-25T17:19:04.523Z,38.10
2019-04-25T17:21:33.547Z,39.38
2019-04-25T17:24:02.672Z,40.53
2019-04-25T17:26:32.674Z,41.90
2019-04-25T17:29:04.152Z,42.83
2019-04-25T17:31:54.998Z,43.23
2019-04-25T17:34:31.847Z,43.79
2019-04-25T17:37:19.787Z,44.30
2019-04-25T17:39:52.000Z,45.01
2019-04-25T17:42:21.132Z,45.46
2019-04-25T17:44:50.046Z,45.86
2019-04-25T17:47:19.018Z,45.29
2019-04-25T17:49:47.891Z,45.24
2019-04-25T17:52:16.761Z,45.33
2019-04-25T17:54:46.324Z,45.18
2019-04-25T17:57:15.213Z,45.33
2019-04-25T17:59:44.188Z,45.70
2019-04-25T18:02:13.420Z,45.70
2019-04-25T18:04:42.586Z,45.93
2019-04-25T18:07:12.528Z,46.16
2019-04-25T18:09:41.468Z,46.27
2019-04-25T18:12:10.688Z,46.59
2019-04-25T18:14:40.520Z,46.93
2019-04-25T18:17:09.533Z,47.16
2019-04-25T18:19:46.188Z,47.42
2019-04-25T18:22:28.976Z,47.60
2019-04-25T18:25:13.255Z,47.78
2019-04-25T18:28:01.404Z,48.17
2019-04-25T18:30:31.205Z,48.34
2019-04-25T18:33:10.559Z,48.56
2019-04-25T18:35:41.679Z,48.35
2019-04-25T18:38:29.193Z,48.18
2019-04-25T18:41:11.922Z,47.87
2019-04-25T18:43:44.812Z,47.94
2019-04-25T18:46:21.801Z,48.18
2019-04-25T18:48:51.150Z,48.37
2019-04-25T18:51:20.188Z,48.65
2019-04-25T18:54:07.293Z,48.97
2019-04-25T18:56:41.105Z,49.26
2019-04-25T18:59:48.222Z,49.79
2019-04-25T19:02:35.276Z,50.00
2019-04-25T19:05:26.420Z,50.36
2019-04-25T19:07:55.686Z,50.61
2019-04-25T19:10:24.956Z,50.57
2019-04-25T19:12:53.965Z,50.90
2019-04-25T19:15:22.943Z,51.20
2019-04-25T19:17:52.193Z,50.59
2019-04-25T19:20:21.407Z,50.87
2019-04-25T19:22:50.620Z,50.98
2019-04-25T19:25:19.757Z,51.62
2019-04-25T19:27:48.927Z,51.50
2019-04-25T19:30:19.861Z,51.83
2019-04-25T19:32:49.182Z,52.06
2019-04-25T19:35:18.372Z,51.96
2019-04-25T19:37:48.467Z,52.09
2019-04-25T19:40:30.222Z,52.39
2019-04-25T19:43:05.609Z,52.59
2019-04-25T19:45:34.587Z,52.76
2019-04-25T19:48:03.547Z,52.97
2019-04-25T19:50:32.630Z,53.04
2019-04-25T19:53:01.622Z,53.42
2019-04-25T19:55:30.479Z,53.48
2019-04-25T19:57:59.577Z,53.70
2019-04-25T20:00:28.583Z,53.69
2019-04-25T20:03:20.744Z,53.60
2019-04-25T20:05:58.354Z,53.67
2019-04-25T20:08:36.005Z,53.75
2019-04-25T20:11:17.793Z,53.28
2019-04-25T20:13:47.088Z,53.63
2019-04-25T20:16:16.008Z,53.87
2019-04-25T20:18:45.698Z,54.20
2019-04-25T20:21:15.209Z,54.00
2019-04-25T20:23:46.340Z,53.76
2019-04-25T20:26:15.531Z,53.68
2019-04-25T20:28:44.959Z,53.76
2019-04-25T20:31:14.686Z,53.85
2019-04-25T20:33:45.441Z,53.94
2019-04-25T20:36:17.813Z,54.25
2019-04-25T20:38:45.973Z,54.52
2019-04-25T20:41:16.002Z,54.72
2019-04-25T20:43:45.156Z,54.54
2019-04-25T20:46:14.229Z,54.65
2019-04-25T20:48:43.131Z,55.08
2019-04-25T20:51:12.181Z,55.01
2019-04-25T20:53:41.274Z,55.20
2019-04-25T20:56:10.171Z,55.79
2019-04-25T20:58:39.221Z,56.44
2019-04-25T21:01:08.210Z,56.30
2019-04-25T21:03:37.290Z,56.17
2019-04-25T21:06:16.142Z,56.58
2019-04-25T21:08:44.983Z,57.13
2019-04-25T21:11:13.977Z,57.37
2019-04-25T21:14:04.956Z,57.53
2019-04-25T21:17:08.026Z,57.44
2019-04-25T21:19:40.300Z,57.83
2019-04-25T21:22:09.732Z,57.83
2019-04-25T21:24:38.996Z,57.78
2019-04-25T21:27:07.877Z,57.32
2019-04-25T21:29:36.958Z,57.43
2019-04-25T21:32:06.208Z,57.50
2019-04-25T21:34:35.156Z,57.30
2019-04-25T21:37:04.408Z,57.10
2019-04-25T21:39:53.593Z,57.45
2019-04-25T21:42:27.306Z,56.83
2019-04-25T21:44:56.605Z,57.13
2019-04-25T21:47:27.192Z,57.37
2019-04-25T21:49:58.595Z,57.80
2019-04-25T21:52:27.945Z,57.93
2019-04-25T21:54:57.517Z,58.70
2019-04-25T21:57:27.669Z,59.67
2019-04-25T22:00:02.813Z,59.76
2019-04-25T22:02:27.968Z,60.16
2019-04-25T22:04:57.053Z,60.63
2019-04-25T22:07:29.094Z,60.96
2019-04-25T22:09:59.409Z,61.16
2019-04-25T22:12:28.481Z,61.69
2019-04-25T22:14:57.638Z,61.69
2019-04-25T22:17:26.694Z,62.01
2019-04-25T22:19:56.762Z,62.16
2019-04-25T22:22:26.735Z,62.40
2019-04-25T22:24:56.169Z,62.68
2019-04-25T22:27:30.559Z,62.80
2019-04-25T22:29:59.966Z,63.49
2019-04-25T22:32:57.145Z,63.66
2019-04-25T22:35:36.223Z,64.17
2019-04-25T22:38:06.311Z,64.25
2019-04-25T22:40:35.271Z,64.21
2019-04-25T22:43:05.925Z,64.28
2019-04-25T22:45:35.217Z,64.30
2019-04-25T22:48:04.696Z,64.51
2019-04-25T22:50:33.969Z,64.86
2019-04-25T22:53:02.853Z,64.67
2019-04-25T22:55:33.206Z,65.12
2019-04-25T22:58:02.777Z,65.34
2019-04-25T23:00:35.942Z,65.59
2019-04-25T23:03:14.268Z,65.93
2019-04-25T23:05:50.090Z,66.26
2019-04-25T23:08:19.699Z,66.83
2019-04-25T23:10:48.759Z,67.27
2019-04-25T23:13:17.564Z,67.27
2019-04-25T23:15:46.625Z,67.41
2019-04-25T23:18:15.761Z,67.78
2019-04-25T23:20:44.775Z,67.66
2019-04-25T23:23:13.949Z,67.58
2019-04-25T23:26:00.930Z,68.43
2019-04-25T23:28:33.260Z,69.08
2019-04-25T23:31:12.618Z,69.20
2019-04-25T23:33:41.593Z,69.41
2019-04-25T23:36:11.222Z,69.62
2019-04-25T23:38:40.368Z,69.81
2019-04-25T23:41:09.730Z,70.10
2019-04-25T23:43:38.689Z,70.23
2019-04-25T23:46:08.246Z,70.36
2019-04-25T23:48:37.468Z,70.27
2019-04-25T23:51:06.458Z,70.53
2019-04-25T23:53:36.487Z,70.44
2019-04-25T23:56:05.511Z,70.68
2019-04-25T23:58:34.408Z,70.54
